Time;durP1;ratioP1;P1;durP2;ratioP2;P2;SDS_P1;SDS_P2;PMS_P1;PMS_P2;Temp;Humidity;BMP_temperature;BMP_pressure;BME280_temperature;BME280_humidity;BME280_pressure;Samples;Min_cycle;Max_cycle;Signal;HPM_P1;HPM_P2
2022/01/02 00:02:09;;;;;;;7.80;4.07;;;;;;;11.43;79.63;101613.25;4949655;29;20421;-70
2022/01/02 00:04:36;;;;;;;8.85;4.10;;;;;;;11.46;79.79;101623.69;4955735;29;20121;-70
2022/01/02 00:07:05;;;;;;;8.45;4.20;;;;;;;11.43;79.57;101629.53;4955980;29;20043;-70
2022/01/02 00:09:36;;;;;;;8.43;4.30;;;;;;;11.46;79.42;101629.09;4955607;29;20097;-70
2022/01/02 00:12:10;;;;;;;8.40;3.90;;;;;;;11.47;79.69;101646.19;4943783;29;20036;-71
2022/01/02 00:14:37;;;;;;;8.43;4.00;;;;;;;11.46;79.42;101642.66;4955828;29;20039;-70
2022/01/02 00:17:05;;;;;;;8.50;3.67;;;;;;;11.47;79.39;101649.75;4948602;29;20031;-70
2022/01/02 00:19:32;;;;;;;6.93;4.05;;;;;;;11.47;79.65;101651.59;4940631;29;20066;-71
2022/01/02 00:22:02;;;;;;;12.73;4.13;;;;;;;11.50;79.76;101646.63;4969284;28;20034;-70
2022/01/02 00:24:28;;;;;;;7.55;3.70;;;;;;;11.48;79.46;101640.56;4973946;28;20033;-71
2022/01/02 00:26:56;;;;;;;9.95;4.07;;;;;;;11.51;79.53;101636.59;4955939;29;20035;-70
2022/01/02 00:29:22;;;;;;;8.02;3.78;;;;;;;11.53;79.73;101635.34;4938386;29;20036;-71
2022/01/02 00:31:48;;;;;;;7.65;3.60;;;;;;;11.54;79.79;101630.75;4937092;29;20107;-70
2022/01/02 00:34:15;;;;;;;10.38;3.78;;;;;;;11.56;79.49;101622.41;4943249;29;20063;-70
2022/01/02 00:36:40;;;;;;;8.48;3.53;;;;;;;11.57;79.91;101627.63;4954722;29;20119;-70
2022/01/02 00:39:07;;;;;;;6.95;3.75;;;;;;;11.59;80.27;101627.41;4954035;29;20587;-70
2022/01/02 00:41:43;;;;;;;7.32;3.83;;;;;;;11.56;80.77;101625.94;4946241;29;20523;-71
2022/01/02 00:44:22;;;;;;;10.25;3.97;;;;;;;11.54;81.19;101628.03;4951064;29;20093;-70
2022/01/02 00:46:56;;;;;;;10.88;3.97;;;;;;;11.54;81.26;101633.47;4953069;29;20046;-70
2022/01/02 00:49:25;;;;;;;9.40;3.55;;;;;;;11.48;81.79;101623.47;4937694;29;20031;-71
2022/01/02 00:51:58;;;;;;;9.68;4.15;;;;;;;11.42;83.83;101635.97;4955042;29;20035;-70
2022/01/02 00:54:28;;;;;;;8.93;3.85;;;;;;;11.41;83.65;101626.19;4955047;29;20485;-70
2022/01/02 00:56:57;;;;;;;13.13;4.13;;;;;;;11.39;84.06;101622.84;4953037;29;20031;-70
2022/01/02 00:59:28;;;;;;;10.20;3.53;;;;;;;11.36;84.42;101612.44;4935932;29;20222;-70
2022/01/02 01:02:04;;;;;;;7.90;3.85;;;;;;;11.33;85.32;101610.16;4945647;29;20126;-71
2022/01/02 01:04:35;;;;;;;9.93;4.25;;;;;;;11.27;85.68;101608.28;4943145;29;20043;-71
2022/01/02 01:07:05;;;;;;;7.05;4.13;;;;;;;11.23;85.94;101604.31;4936887;29;20452;-70
2022/01/02 01:09:32;;;;;;;11.20;4.70;;;;;;;11.25;86.57;101605.78;4937053;29;20106;-71
2022/01/02 01:11:59;;;;;;;11.57;4.53;;;;;;;11.23;87.07;101596.19;4923509;29;20387;-70
2022/01/02 01:14:26;;;;;;;10.60;4.15;;;;;;;11.21;86.58;101595.59;4935920;29;20038;-70
2022/01/02 01:16:52;;;;;;;10.80;3.97;;;;;;;11.21;87.17;101599.13;4934107;29;20379;-71
2022/01/02 01:19:17;;;;;;;7.15;4.00;;;;;;;11.23;86.98;101586.22;4935777;29;20039;-71
2022/01/02 01:21:43;;;;;;;12.00;4.45;;;;;;;11.20;87.61;101586.59;4935242;29;20027;-71
2022/01/02 01:24:08;;;;;;;9.77;4.35;;;;;;;11.18;86.88;101584.13;4937512;29;20031;-71
2022/01/02 01:26:34;;;;;;;10.10;4.40;;;;;;;11.21;86.71;101582.88;4950879;29;20031;-70
2022/01/02 01:29:00;;;;;;;8.98;4.50;;;;;;;11.16;87.64;101577.25;4953219;29;20035;-70
2022/01/02 01:31:25;;;;;;;11.68;4.63;;;;;;;11.18;87.87;101572.47;4953815;29;20505;-71
2022/01/02 01:33:50;;;;;;;7.72;3.92;;;;;;;11.12;87.39;101566.00;4935610;29;20024;-70
2022/01/02 01:36:16;;;;;;;9.73;4.45;;;;;;;11.16;88.03;101569.97;4935752;29;20055;-71
2022/01/02 01:38:41;;;;;;;8.73;4.05;;;;;;;11.16;88.18;101556.41;4934984;29;20031;-71
2022/01/02 01:41:14;;;;;;;9.77;4.53;;;;;;;11.14;88.25;101566.63;4934863;29;20034;-71
2022/01/02 01:43:52;;;;;;;9.20;4.55;;;;;;;11.15;88.32;101564.75;4938945;29;20037;-70
2022/01/02 01:46:18;;;;;;;13.50;4.65;;;;;;;11.12;88.17;101557.88;4954009;29;20035;-70
2022/01/02 01:48:55;;;;;;;11.48;4.63;;;;;;;11.11;87.69;101556.22;4947256;29;20033;-71
2022/01/02 01:51:20;;;;;;;8.15;4.10;;;;;;;11.16;88.28;101545.56;4935657;29;20092;-71
2022/01/02 01:53:45;;;;;;;7.45;3.90;;;;;;;11.15;88.08;101545.78;4954637;29;20043;-71
2022/01/02 01:56:11;;;;;;;8.35;4.10;;;;;;;11.13;87.62;101543.28;4954101;29;20059;-70
2022/01/02 01:58:36;;;;;;;9.57;4.32;;;;;;;11.16;88.14;101542.03;4953970;29;20419;-71
2022/01/02 02:01:02;;;;;;;10.30;4.18;;;;;;;11.13;88.10;101531.63;4946368;29;20043;-70
2022/01/02 02:03:28;;;;;;;6.72;4.10;;;;;;;11.12;88.34;101535.38;4935221;29;20468;-71
2022/01/02 02:05:53;;;;;;;8.75;4.10;;;;;;;11.12;88.04;101533.50;4935041;29;20036;-71
2022/01/02 02:08:20;;;;;;;12.93;4.00;;;;;;;11.08;88.50;101515.16;4935138;29;20070;-71
2022/01/02 02:10:54;;;;;;;11.05;4.35;;;;;;;11.05;88.95;101515.59;4938682;29;20031;-70
2022/01/02 02:13:19;;;;;;;9.07;3.85;;;;;;;11.07;88.83;101510.81;4925413;29;20474;-70
2022/01/02 02:15:45;;;;;;;10.32;4.28;;;;;;;11.09;89.05;101503.31;4947770;29;20028;-71
2022/01/02 02:18:10;;;;;;;13.32;4.50;;;;;;;11.08;88.75;101491.66;4954015;29;20035;-71
2022/01/02 02:20:36;;;;;;;10.23;4.22;;;;;;;11.12;88.54;101492.88;4953771;29;20059;-70
2022/01/02 02:23:02;;;;;;;12.27;3.90;;;;;;;11.09;88.37;101492.47;4949090;29;20106;-71
2022/01/02 02:25:30;;;;;;;11.20;4.13;;;;;;;11.09;88.62;101489.75;4954553;29;20065;-70
2022/01/02 02:27:58;;;;;;;10.43;3.90;;;;;;;11.07;88.75;101479.13;4951633;29;20050;-70
2022/01/02 02:30:26;;;;;;;12.60;3.80;;;;;;;11.08;88.47;101483.53;4952045;29;20034;-71
2022/01/02 02:32:56;;;;;;;9.98;4.20;;;;;;;11.10;88.45;101478.72;4953724;29;20374;-70
2022/01/02 02:35:21;;;;;;;9.40;3.88;;;;;;;11.11;88.23;101477.69;4937333;29;20039;-70
2022/01/02 02:37:47;;;;;;;7.47;3.63;;;;;;;11.16;88.47;101485.97;4935248;29;20047;-70
2022/01/02 02:40:15;;;;;;;11.20;4.03;;;;;;;11.12;88.56;101487.44;4935006;29;20039;-70
2022/01/02 02:42:49;;;;;;;11.77;3.95;;;;;;;11.12;89.26;101482.03;4935424;29;20087;-70
2022/01/02 02:51:05;;;;;;;10.70;4.03;;;;;;;11.14;89.08;101461.00;4954684;28;20485;-70
2022/01/02 02:53:33;;;;;;;9.90;4.28;;;;;;;11.14;88.89;101454.72;4956736;29;20058;-70
2022/01/02 02:55:59;;;;;;;13.52;4.53;;;;;;;11.13;88.82;101455.78;4938139;29;20043;-70
2022/01/02 02:58:43;;;;;;;10.98;4.20;;;;;;;11.11;89.38;101452.44;4949028;29;20451;-71
2022/01/02 03:01:11;;;;;;;15.93;4.30;;;;;;;11.20;88.94;101448.44;4953882;29;20610;-70
2022/01/02 03:03:38;;;;;;;13.35;4.80;;;;;;;11.16;88.39;101456.19;4951435;29;20119;-71
2022/01/02 03:06:05;;;;;;;13.77;4.22;;;;;;;11.15;89.07;101454.50;4938349;29;20501;-70
2022/01/02 03:08:31;;;;;;;11.05;5.10;;;;;;;11.16;89.24;101453.47;4946410;29;20063;-71
2022/01/02 03:10:57;;;;;;;13.80;4.47;;;;;;;11.17;89.08;101448.88;4953338;29;20464;-71
2022/01/02 03:13:22;;;;;;;13.57;4.28;;;;;;;11.21;88.69;101454.72;4957016;29;20034;-70
2022/01/02 03:15:48;;;;;;;16.40;4.45;;;;;;;11.21;88.83;101444.72;4944947;29;20383;-71
2022/01/02 03:18:13;;;;;;;16.95;4.85;;;;;;;11.22;88.87;101440.09;4937969;29;20038;-71
2022/01/02 03:20:38;;;;;;;10.77;4.38;;;;;;;11.23;88.52;101461.59;4938048;29;20066;-71
2022/01/02 03:23:03;;;;;;;14.73;5.97;;;;;;;11.21;88.73;101441.19;4937947;29;20047;-70
2022/01/02 03:25:29;;;;;;;19.73;4.55;;;;;;;11.23;88.64;101449.91;4921765;29;20039;-70
2022/01/02 03:27:54;;;;;;;11.68;4.40;;;;;;;11.20;88.49;101434.09;4937650;29;20109;-70
2022/01/02 03:30:19;;;;;;;11.77;4.72;;;;;;;11.22;88.86;101431.97;4953624;29;20483;-70
2022/01/02 03:32:44;;;;;;;14.20;4.35;;;;;;;11.25;89.39;101443.25;4955134;29;20039;-71
2022/01/02 03:35:10;;;;;;;12.02;4.30;;;;;;;11.27;88.88;101451.16;4949391;29;20040;-70
2022/01/02 03:37:35;;;;;;;14.32;4.75;;;;;;;11.26;89.04;101454.91;4937570;29;20047;-71
2022/01/02 03:40:02;;;;;;;13.45;4.38;;;;;;;11.20;89.24;101453.88;4938191;29;20032;-70
2022/01/02 03:42:28;;;;;;;11.07;4.38;;;;;;;11.20;89.45;101450.34;4937238;29;20039;-70
2022/01/02 03:44:53;;;;;;;14.02;4.50;;;;;;;11.19;89.82;101449.50;4937316;29;20158;-70
2022/01/02 03:47:19;;;;;;;14.05;4.68;;;;;;;11.18;89.39;101434.31;4953226;29;20035;-71
2022/01/02 03:49:44;;;;;;;11.30;4.22;;;;;;;11.21;89.46;101438.47;4956014;29;20035;-70
2022/01/02 03:52:10;;;;;;;17.00;4.63;;;;;;;11.18;89.54;101431.59;4956283;29;20057;-71
2022/01/02 03:54:35;;;;;;;15.23;4.70;;;;;;;11.20;89.42;101428.66;4945870;29;20031;-70
2022/01/02 03:57:01;;;;;;;13.35;4.70;;;;;;;11.21;89.44;101419.50;4941816;29;20032;-71
2022/01/02 03:59:26;;;;;;;11.55;4.55;;;;;;;11.18;89.46;101421.56;4955773;29;20379;-70
2022/01/02 04:01:51;;;;;;;10.82;4.35;;;;;;;11.21;89.56;101408.66;4950603;29;20066;-70
2022/01/02 04:04:17;;;;;;;16.55;5.50;;;;;;;11.20;89.37;101401.56;4953358;28;20085;-70
2022/01/02 04:06:42;;;;;;;17.23;4.57;;;;;;;11.22;89.17;101399.47;4955486;29;20479;-70
2022/01/02 04:09:08;;;;;;;14.55;4.60;;;;;;;11.22;89.25;101389.50;4952457;29;20047;-71
2022/01/02 04:11:33;;;;;;;10.50;4.30;;;;;;;11.24;88.95;101381.97;4937022;29;20119;-71
2022/01/02 04:13:58;;;;;;;12.30;4.43;;;;;;;11.22;89.11;101389.50;4941694;29;20043;-70
2022/01/02 04:16:24;;;;;;;9.85;3.70;;;;;;;11.25;88.86;101389.06;4955879;29;20043;-71
2022/01/02 04:18:50;;;;;;;13.38;4.82;;;;;;;11.23;89.17;101390.31;4936817;29;20055;-71
2022/01/02 04:21:15;;;;;;;13.85;4.43;;;;;;;11.25;88.57;101389.06;4936825;29;20039;-70
2022/01/02 04:23:40;;;;;;;10.00;4.35;;;;;;;11.26;88.98;101396.16;4947657;29;20065;-70
2022/01/02 04:26:06;;;;;;;14.10;4.57;;;;;;;11.26;88.60;101393.44;4955060;29;20056;-70
2022/01/02 04:28:31;;;;;;;12.00;4.03;;;;;;;11.28;88.99;101395.94;4952407;29;20032;-70
2022/01/02 04:30:56;;;;;;;10.82;4.55;;;;;;;11.28;88.55;101393.22;4955285;29;20037;-71
2022/01/02 04:33:21;;;;;;;12.68;4.20;;;;;;;11.25;88.51;101380.94;4954924;29;20407;-70
2022/01/02 04:35:47;;;;;;;16.75;4.28;;;;;;;11.25;88.97;101383.63;4955140;29;20035;-71
2022/01/02 04:38:13;;;;;;;12.40;4.32;;;;;;;11.23;89.44;101376.75;4954543;29;20039;-71
2022/01/02 04:40:39;;;;;;;12.02;4.38;;;;;;;11.20;89.48;101378.00;4937692;29;20114;-70
2022/01/02 04:43:05;;;;;;;11.73;4.25;;;;;;;11.24;89.74;101363.00;4941006;29;20114;-72
2022/01/02 04:45:30;;;;;;;9.40;4.00;;;;;;;11.19;89.43;101357.41;4938218;29;20043;-70
2022/01/02 04:47:55;;;;;;;12.43;4.72;;;;;;;11.20;89.94;101347.41;4942276;29;20475;-70
2022/01/02 04:50:20;;;;;;;9.80;4.20;;;;;;;11.17;90.10;101340.53;4943326;29;20031;-71
2022/01/02 04:52:46;;;;;;;12.10;4.43;;;;;;;11.17;89.89;101337.81;4954037;29;20063;-70
2022/01/02 04:55:11;;;;;;;11.07;3.97;;;;;;;11.17;89.77;101330.53;4955092;29;20038;-71
2022/01/02 04:57:37;;;;;;;12.30;4.22;;;;;;;11.18;90.16;101328.66;4937366;29;20101;-71
2022/01/02 05:00:04;;;;;;;11.27;4.07;;;;;;;11.13;89.75;101315.75;4940688;29;20035;-70
2022/01/02 05:02:30;;;;;;;8.80;3.90;;;;;;;11.12;89.86;101297.84;4946857;29;20554;-70
2022/01/02 05:04:55;;;;;;;12.13;4.35;;;;;;;11.11;90.14;101285.38;4954463;29;20043;-71
2022/01/02 05:07:20;;;;;;;14.63;4.28;;;;;;;11.13;89.71;101294.09;4954333;29;20035;-71
2022/01/02 05:09:45;;;;;;;12.02;4.20;;;;;;;11.12;90.08;101289.72;4950129;29;20027;-70
2022/01/02 05:12:11;;;;;;;11.57;3.90;;;;;;;11.12;90.29;101297.84;4944879;29;20057;-71
2022/01/02 05:14:37;;;;;;;13.20;3.72;;;;;;;11.08;89.78;101274.13;4954738;28;20031;-71
2022/01/02 05:17:02;;;;;;;9.85;3.83;;;;;;;11.07;90.61;101273.31;4954477;29;20107;-71
2022/01/02 05:19:28;;;;;;;11.98;4.43;;;;;;;11.06;90.71;101274.34;4944253;29;20467;-71
2022/01/02 05:21:53;;;;;;;12.70;4.15;;;;;;;11.08;90.11;101277.69;4935735;29;20035;-71
2022/01/02 05:24:18;;;;;;;13.73;4.07;;;;;;;11.07;90.65;101267.06;4943013;29;20031;-70
2022/01/02 05:26:43;;;;;;;9.68;3.88;;;;;;;11.07;90.63;101273.31;4943963;29;20078;-70
2022/01/02 05:29:09;;;;;;;9.40;4.00;;;;;;;11.02;90.75;101262.31;4938080;29;20147;-71
2022/01/02 05:31:34;;;;;;;8.32;3.63;;;;;;;11.01;90.42;101266.06;4954557;29;20033;-71
2022/01/02 05:33:59;;;;;;;9.30;3.67;;;;;;;11.02;90.49;101251.47;4953980;29;20046;-71
2022/01/02 05:36:25;;;;;;;10.90;3.88;;;;;;;11.04;91.10;101246.66;4954787;29;20047;-71
2022/01/02 05:38:50;;;;;;;17.08;4.35;;;;;;;11.05;90.57;101242.06;4948259;29;20024;-71
2022/01/02 05:41:16;;;;;;;12.13;4.03;;;;;;;10.98;90.39;101247.53;4945521;29;20031;-71
2022/01/02 05:43:41;;;;;;;12.05;4.22;;;;;;;10.98;90.82;101234.00;4950174;29;20075;-71
2022/01/02 05:46:07;;;;;;;9.23;3.95;;;;;;;10.99;90.53;101238.34;4951103;29;20031;-71
2022/01/02 05:48:33;;;;;;;8.48;3.95;;;;;;;10.97;91.25;101229.63;4954296;29;20446;-70
2022/01/02 05:51:00;;;;;;;11.25;4.38;;;;;;;10.98;90.74;101226.69;4947886;29;20106;-69
2022/01/02 05:53:26;;;;;;;13.45;4.25;;;;;;;10.95;90.67;101216.28;4945938;29;20102;-71
2022/01/02 05:55:51;;;;;;;9.27;4.10;;;;;;;10.96;90.73;101211.69;4941673;29;20039;-71
2022/01/02 05:58:17;;;;;;;12.77;3.85;;;;;;;10.94;90.50;101194.84;4953939;29;20023;-71
2022/01/02 06:00:42;;;;;;;12.40;4.13;;;;;;;10.93;90.89;101195.88;4948010;29;20110;-70
2022/01/02 06:03:07;;;;;;;12.05;4.38;;;;;;;10.91;90.89;101182.56;4952452;29;20043;-70
2022/01/02 06:05:32;;;;;;;15.57;4.18;;;;;;;10.92;90.89;101168.00;4935561;29;20045;-71
2022/01/02 06:07:58;;;;;;;10.77;3.90;;;;;;;10.88;90.57;101163.25;4935132;29;20040;-71
2022/01/02 06:10:23;;;;;;;8.52;4.03;;;;;;;10.85;90.92;101166.38;4939035;29;20032;-72
2022/01/02 06:12:48;;;;;;;8.10;3.75;;;;;;;10.81;90.39;101161.41;4934844;29;20032;-71
2022/01/02 06:15:13;;;;;;;10.68;3.80;;;;;;;10.81;90.71;101157.88;4938323;29;20474;-70
2022/01/02 06:17:39;;;;;;;10.70;4.18;;;;;;;10.78;90.78;101144.78;4935629;29;20039;-70
2022/01/02 06:20:05;;;;;;;11.65;4.03;;;;;;;10.76;90.96;101142.28;4934968;29;20032;-70
2022/01/02 06:22:30;;;;;;;9.18;3.60;;;;;;;10.78;91.09;101128.53;4935591;29;20035;-70
2022/01/02 06:24:55;;;;;;;9.25;3.53;;;;;;;10.78;90.59;101117.72;4934740;29;20071;-71
2022/01/02 06:27:20;;;;;;;11.57;3.80;;;;;;;10.78;91.30;101107.72;4920857;29;20395;-70
2022/01/02 06:29:46;;;;;;;9.77;3.33;;;;;;;10.81;90.16;101087.50;4938503;29;20047;-71
2022/01/02 06:32:11;;;;;;;10.93;3.78;;;;;;;10.77;90.10;101084.38;4938107;29;20106;-70
2022/01/02 06:34:36;;;;;;;11.55;3.58;;;;;;;10.79;90.64;101081.47;4946805;29;20050;-70
2022/01/02 06:37:02;;;;;;;11.27;3.53;;;;;;;10.75;90.06;101072.97;4942797;29;20495;-70
2022/01/02 06:39:27;;;;;;;12.77;3.60;;;;;;;10.80;90.29;101056.06;4955638;29;20027;-70
2022/01/02 06:41:52;;;;;;;8.23;3.40;;;;;;;10.77;89.90;101053.78;4952881;29;20035;-71
2022/01/02 06:44:18;;;;;;;11.18;3.13;;;;;;;10.73;89.85;101039.03;4957274;29;20061;-71
2022/01/02 06:46:43;;;;;;;7.95;3.30;;;;;;;10.74;89.44;101025.28;4946828;29;20063;-71
2022/01/02 06:49:08;;;;;;;7.38;3.28;;;;;;;10.75;89.58;101012.56;4938084;29;20036;-70
2022/01/02 06:51:33;;;;;;;9.77;3.50;;;;;;;10.72;89.19;101011.16;4939549;29;20027;-71
2022/01/02 06:53:59;;;;;;;7.70;3.40;;;;;;;10.73;89.80;101018.19;4956477;29;20031;-70
2022/01/02 06:56:24;;;;;;;7.63;3.13;;;;;;;10.73;89.53;101017.38;4955228;29;20038;-71
2022/01/02 06:58:49;;;;;;;6.55;2.95;;;;;;;10.74;89.25;101014.44;4957029;29;20027;-70
2022/01/02 07:01:14;;;;;;;10.48;3.38;;;;;;;10.75;88.60;100997.16;4949523;29;20423;-70
2022/01/02 07:03:40;;;;;;;7.65;3.25;;;;;;;10.79;88.51;100989.41;4956657;29;20032;-71
2022/01/02 07:06:05;;;;;;;8.30;3.28;;;;;;;10.76;88.42;100990.69;4956429;29;20042;-71
2022/01/02 07:08:30;;;;;;;7.15;3.25;;;;;;;10.76;87.87;100987.97;4939770;29;20030;-70
2022/01/02 07:10:56;;;;;;;8.23;2.95;;;;;;;10.76;88.36;100993.41;4941175;29;20038;-71
2022/01/02 07:13:22;;;;;;;6.65;3.22;;;;;;;10.78;87.64;100999.44;4938065;29;20044;-71
2022/01/02 07:15:47;;;;;;;10.07;3.40;;;;;;;10.81;87.19;101000.88;4937695;29;20032;-70
2022/01/02 07:18:13;;;;;;;7.97;3.42;;;;;;;10.81;87.74;101012.53;4937432;29;20055;-70
2022/01/02 07:20:38;;;;;;;8.57;3.00;;;;;;;10.82;87.48;101021.47;4951112;29;20027;-71
2022/01/02 07:23:03;;;;;;;8.38;2.80;;;;;;;10.85;86.98;101025.59;4955476;29;20031;-71
2022/01/02 07:25:28;;;;;;;6.85;3.00;;;;;;;10.84;87.15;101005.84;4928025;29;20467;-70
2022/01/02 07:27:54;;;;;;;7.47;3.05;;;;;;;10.87;87.62;100991.00;4942594;29;20032;-71
2022/01/02 07:30:19;;;;;;;4.93;2.70;;;;;;;10.88;87.32;100989.97;4920607;29;20031;-71
2022/01/02 07:32:44;;;;;;;10.52;3.10;;;;;;;10.87;87.39;100972.06;4939586;29;20531;-70
2022/01/02 07:35:10;;;;;;;4.10;2.70;;;;;;;10.88;86.22;100971.84;4948135;29;20039;-70
2022/01/02 07:37:36;;;;;;;7.30;2.97;;;;;;;10.87;86.08;100985.59;4946852;29;20078;-70
2022/01/02 07:40:04;;;;;;;6.60;2.70;;;;;;;10.88;85.41;100981.84;4952597;29;20046;-71
2022/01/02 07:42:29;;;;;;;7.70;2.83;;;;;;;10.92;85.13;100985.78;4956049;29;20031;-70
2022/01/02 07:44:54;;;;;;;8.60;3.00;;;;;;;10.94;85.91;100972.81;4955875;29;20043;-71
2022/01/02 07:47:19;;;;;;;7.05;2.63;;;;;;;10.94;85.84;100983.66;4952116;29;20031;-70
2022/01/02 07:49:45;;;;;;;6.90;2.67;;;;;;;10.96;84.86;101008.63;4956522;29;20475;-71
2022/01/02 07:52:10;;;;;;;5.85;2.80;;;;;;;10.94;86.08;100986.38;4939054;29;20035;-70
2022/01/02 07:54:36;;;;;;;7.70;2.53;;;;;;;10.96;85.94;101005.91;4953051;29;20046;-71
2022/01/02 07:57:02;;;;;;;10.48;3.28;;;;;;;10.95;85.92;101013.22;4937143;29;20046;-71
2022/01/02 07:59:27;;;;;;;8.45;2.80;;;;;;;10.95;86.23;101015.09;4937262;29;20456;-70
2022/01/02 08:01:52;;;;;;;6.20;2.90;;;;;;;10.94;85.58;101024.28;4936379;29;20050;-71
2022/01/02 08:04:19;;;;;;;6.75;3.10;;;;;;;10.93;85.94;101026.16;4938284;29;20403;-71
2022/01/02 08:06:44;;;;;;;7.25;3.00;;;;;;;10.92;85.92;101007.44;4950740;29;20059;-71
2022/01/02 08:09:10;;;;;;;5.95;3.00;;;;;;;10.93;85.64;101006.34;4937260;29;20118;-71
2022/01/02 08:11:35;;;;;;;7.97;2.97;;;;;;;10.88;85.76;101011.63;4945789;29;20042;-71
2022/01/02 08:14:00;;;;;;;8.35;3.03;;;;;;;10.90;85.49;101017.63;4936703;29;20038;-71
2022/01/02 08:16:26;;;;;;;5.32;2.63;;;;;;;10.92;84.64;101024.50;4942173;29;20083;-70
2022/01/02 08:18:51;;;;;;;7.25;3.30;;;;;;;10.87;85.60;101026.19;4936908;29;20042;-71
2022/01/02 08:21:17;;;;;;;6.13;2.92;;;;;;;10.91;85.44;101027.44;4946356;29;20479;-70
2022/01/02 08:23:42;;;;;;;7.57;2.80;;;;;;;10.88;85.02;101027.88;4938801;29;20106;-70
2022/01/02 08:26:07;;;;;;;5.13;2.60;;;;;;;10.95;84.67;101034.06;4941035;29;20035;-70
2022/01/02 08:28:32;;;;;;;5.28;3.00;;;;;;;10.94;84.58;101010.72;4955981;29;20050;-71
2022/01/02 08:30:58;;;;;;;5.13;2.50;;;;;;;10.91;84.32;100984.09;4955879;29;20536;-71
2022/01/02 08:33:23;;;;;;;7.25;3.05;;;;;;;10.91;83.58;101022.81;4954069;29;20734;-70
2022/01/02 08:35:49;;;;;;;6.20;2.90;;;;;;;10.98;83.58;101041.72;4955034;29;20042;-70
2022/01/02 08:38:15;;;;;;;6.65;2.65;;;;;;;10.96;83.40;101006.75;4955220;29;20034;-70
2022/01/02 08:40:40;;;;;;;6.05;2.85;;;;;;;10.99;83.30;101021.72;4951019;29;20027;-71
2022/01/02 08:43:07;;;;;;;9.02;3.00;;;;;;;11.00;82.83;101017.97;4952614;29;20403;-70
2022/01/02 08:45:34;;;;;;;4.60;2.65;;;;;;;11.05;82.01;101018.13;4936196;29;20483;-70
2022/01/02 08:47:59;;;;;;;4.82;2.85;;;;;;;11.05;82.20;101022.69;4936150;29;20031;-71
2022/01/02 08:50:24;;;;;;;6.35;2.97;;;;;;;11.13;80.85;101022.44;4948758;29;20098;-77
2022/01/02 08:52:50;;;;;;;12.88;3.08;;;;;;;11.21;80.65;101030.25;4955106;29;20045;-72
2022/01/02 08:55:15;;;;;;;7.72;2.80;;;;;;;11.25;80.59;101042.28;4954591;29;20037;-73
2022/01/02 08:57:41;;;;;;;5.43;2.75;;;;;;;11.29;80.45;101037.25;4926941;29;20387;-72
2022/01/02 09:00:07;;;;;;;7.72;3.28;;;;;;;11.29;80.45;101042.66;4935925;29;20031;-71
2022/01/02 09:02:32;;;;;;;6.40;3.20;;;;;;;11.26;80.41;101024.16;4940327;29;20051;-73
2022/01/02 09:04:57;;;;;;;8.55;3.35;;;;;;;11.34;79.93;101029.28;4938736;29;20071;-74
2022/01/02 09:07:23;;;;;;;5.30;3.50;;;;;;;11.39;79.54;101024.00;4955239;29;20031;-79
2022/01/02 09:09:48;;;;;;;6.93;3.40;;;;;;;11.39;79.24;101017.75;4942097;29;20442;-81
2022/01/02 09:12:14;;;;;;;6.90;3.70;;;;;;;11.40;79.17;101017.53;4918704;29;20036;-77
2022/01/02 09:14:41;;;;;;;5.80;3.00;;;;;;;11.41;79.22;101024.59;4936618;29;20038;-76
2022/01/02 09:17:06;;;;;;;6.53;3.42;;;;;;;11.44;79.43;101029.56;4953550;29;20067;-70
2022/01/02 09:19:31;;;;;;;5.40;3.33;;;;;;;11.43;79.53;101014.38;4953500;29;20063;-73
2022/01/02 09:21:57;;;;;;;5.32;3.20;;;;;;;11.49;79.39;101015.34;4938839;28;20067;-71
2022/01/02 09:24:22;;;;;;;6.38;3.67;;;;;;;11.52;79.56;101015.72;4935535;29;20043;-73
2022/01/02 09:26:47;;;;;;;7.00;3.90;;;;;;;11.55;79.58;101016.31;4943761;29;20531;-73
2022/01/02 09:29:12;;;;;;;8.57;3.72;;;;;;;11.59;80.27;101028.34;4953238;29;20050;-72
2022/01/02 09:31:38;;;;;;;9.20;3.65;;;;;;;11.63;79.87;101026.84;4942309;29;20494;-72
2022/01/02 09:34:03;;;;;;;8.60;4.15;;;;;;;11.64;80.45;101028.50;4917835;29;20028;-73
2022/01/02 09:36:28;;;;;;;9.77;4.15;;;;;;;11.70;80.27;101027.59;4948893;29;20050;-72
2022/01/02 09:38:54;;;;;;;5.97;3.63;;;;;;;11.74;79.43;101015.22;4952824;29;20387;-72
2022/01/02 09:41:20;;;;;;;7.43;4.57;;;;;;;11.75;79.37;101027.75;4953452;29;20085;-72
2022/01/02 09:43:47;;;;;;;9.40;3.80;;;;;;;11.87;78.98;101028.63;4944855;29;20039;-73
2022/01/02 09:46:20;;;;;;;7.63;4.13;;;;;;;11.86;79.35;101032.38;4940459;29;20027;-71
2022/01/02 09:48:47;;;;;;;7.22;4.05;;;;;;;11.89;78.81;101044.66;4953804;29;20450;-74
2022/01/02 09:51:13;;;;;;;10.07;3.70;;;;;;;11.95;78.16;101034.81;4953473;29;20494;-72
2022/01/02 09:53:38;;;;;;;9.52;4.10;;;;;;;11.89;78.82;101052.78;4954314;29;20035;-71
2022/01/02 09:56:05;;;;;;;9.25;4.40;;;;;;;11.91;78.60;101030.88;4941569;29;20062;-71
2022/01/02 09:58:31;;;;;;;11.50;4.43;;;;;;;11.95;77.60;101032.09;4930403;29;20028;-72
2022/01/02 10:00:56;;;;;;;7.57;4.30;;;;;;;11.92;78.37;101040.66;4942011;29;20031;-77
2022/01/02 10:03:22;;;;;;;9.98;4.47;;;;;;;11.95;77.87;101040.25;4947771;29;20181;-72
2022/01/02 10:05:56;;;;;;;6.88;4.00;;;;;;;11.94;78.57;101046.72;4940102;29;20143;-77
2022/01/02 10:08:27;;;;;;;7.40;3.60;;;;;;;12.09;77.51;101052.53;4953894;29;20041;-72
2022/01/02 10:11:03;;;;;;;9.70;3.85;;;;;;;12.08;77.86;101052.78;4954487;29;20034;-75
2022/01/02 10:13:48;;;;;;;11.57;3.63;;;;;;;12.17;77.63;101065.81;4945639;29;20031;-73
2022/01/02 10:16:21;;;;;;;7.65;3.97;;;;;;;12.17;76.91;101059.56;4934843;29;20591;-73
2022/01/02 10:18:48;;;;;;;8.50;3.50;;;;;;;12.15;77.17;101057.06;4940994;29;20036;-74
2022/01/02 10:21:27;;;;;;;10.40;4.25;;;;;;;12.15;78.03;101056.22;4945721;29;20057;-71
2022/01/02 10:24:12;;;;;;;8.15;3.78;;;;;;;12.13;77.91;101044.78;4956345;28;20039;-75
2022/01/02 10:26:38;;;;;;;12.88;4.28;;;;;;;12.14;77.59;101039.13;4973662;28;20034;-72
2022/01/02 10:29:14;;;;;;;8.40;3.88;;;;;;;12.16;77.96;101045.16;4973187;28;20490;-71
2022/01/02 10:31:40;;;;;;;10.52;3.72;;;;;;;12.14;78.20;101039.13;4971936;28;20035;-74
2022/01/02 10:34:06;;;;;;;10.15;4.20;;;;;;;12.13;78.27;101037.47;4934571;29;20415;-73
2022/01/02 10:36:38;;;;;;;8.75;4.43;;;;;;;12.13;78.30;101021.19;4963644;28;20134;-75
2022/01/02 10:39:11;;;;;;;10.35;3.97;;;;;;;12.12;78.34;101027.66;4973263;28;20030;-76
2022/01/02 10:41:42;;;;;;;12.98;4.25;;;;;;;12.14;78.60;101027.44;4973136;28;20027;-72
2022/01/02 10:44:22;;;;;;;9.32;4.07;;;;;;;12.19;78.44;101035.72;4954357;28;20107;-75
2022/01/02 10:47:08;;;;;;;8.55;3.95;;;;;;;12.18;78.71;101029.47;4942079;29;20035;-70
2022/01/02 10:50:04;;;;;;;7.82;4.40;;;;;;;12.19;78.64;101036.53;4950930;29;20035;-70
2022/01/02 10:52:40;;;;;;;8.73;4.18;;;;;;;12.21;77.89;101031.72;4949988;29;20415;-71
2022/01/02 10:55:15;;;;;;;11.40;4.10;;;;;;;12.20;78.15;101023.81;4952166;29;20039;-73
2022/01/02 10:57:50;;;;;;;11.05;3.97;;;;;;;12.23;78.11;101034.22;4949435;29;20052;-73
2022/01/02 11:00:25;;;;;;;11.68;4.57;;;;;;;12.25;78.09;101042.94;4936447;29;20035;-72
2022/01/02 11:02:51;;;;;;;10.25;4.07;;;;;;;12.23;78.33;101032.31;4942722;29;20048;-74
2022/01/02 11:05:21;;;;;;;10.25;4.75;;;;;;;12.27;77.98;101034.56;4958250;28;20030;-73
2022/01/02 11:07:51;;;;;;;10.27;4.43;;;;;;;12.28;78.36;101033.50;4972908;28;20101;-73
2022/01/02 11:10:20;;;;;;;11.63;4.32;;;;;;;12.27;78.10;101029.13;4971221;28;20034;-71
2022/01/02 11:12:48;;;;;;;14.68;5.15;;;;;;;12.28;78.13;101011.81;4936544;29;20480;-76
2022/01/02 11:15:18;;;;;;;9.48;4.63;;;;;;;12.31;78.75;101022.19;4939056;29;20055;-71
2022/01/02 11:17:44;;;;;;;14.80;4.25;;;;;;;12.31;78.40;101022.19;4956748;29;20055;-76
2022/01/02 11:20:14;;;;;;;10.93;4.53;;;;;;;12.35;78.57;101024.22;4957081;29;20070;-72
2022/01/02 11:23:14;;;;;;;9.98;4.47;;;;;;;12.43;78.84;101019.50;4948709;29;20087;-71
2022/01/02 11:26:03;;;;;;;12.10;5.55;;;;;;;12.49;77.91;101019.41;4937970;29;20028;-74
2022/01/02 11:28:38;;;;;;;10.32;4.30;;;;;;;12.59;78.09;101030.50;4953679;29;20038;-72